Sublime — SUBLIME — position and weather

sailwx.info

Track history (hours):
 
Tides and Currents Weather Stations Pressure Air Temp Water Temp Dewpoint Dewpoint Depression Visibility Wind Speed Wind Dir Waves Ship Positions

Sublime

Last reported at 2017-Sep-10 07:14 UTC. Time now 2017-Sep-25 07:52 UTC.
Position S 27°13' E 153°06'.
Warning: this ship's position is 15 days out of date.

Length 12 m.

Type: Pleasure craft. MMSI: 503022010.

Date/timePositionNaut miles runAvg speedWind from/ knotsBaromVisibWave heightAir tempDewpointWater temp
2017-Sep-10 07:14S 27°13' E 153°06'0 0.0
2017-Sep-10 06:59S 27°13' E 153°06'0 0.0
2017-Sep-10 06:29S 27°13' E 153°06'0 0.0
2017-Sep-10 05:59S 27°13' E 153°06'0 0.0
2017-Sep-10 05:29S 27°13' E 153°06'0 0.0
2017-Sep-10 04:59S 27°13' E 153°06'0 0.0
2017-Sep-10 04:29S 27°13' E 153°06'0 0.0
2017-Sep-10 03:59S 27°13' E 153°06'0 0.0
2017-Sep-10 03:29S 27°13' E 153°06'0 0.0
2017-Sep-10 02:59S 27°13' E 153°06'0 0.0
2017-Sep-10 02:29S 27°13' E 153°06'0 0.0
2017-Sep-10 01:59S 27°13' E 153°06'0 0.0
2017-Sep-10 01:29S 27°13' E 153°06'0 0.0
2017-Sep-10 00:59S 27°13' E 153°06'0 0.0
2017-Sep-10 00:29S 27°13' E 153°06'0 0.0
2017-Sep-09 23:59S 27°13' E 153°06'0 0.0
2017-Sep-09 23:29S 27°13' E 153°06'0 0.0
2017-Sep-09 22:59S 27°13' E 153°06'0 0.0
2017-Sep-09 22:29S 27°13' E 153°06'0 0.0
2017-Sep-09 21:59S 27°13' E 153°06'0 0.0
2017-Sep-09 21:29S 27°13' E 153°06'0 0.0
2017-Sep-09 20:59S 27°13' E 153°06'0 0.0
2017-Sep-09 20:29S 27°13' E 153°06'0 0.0
2017-Sep-09 19:59S 27°13' E 153°06'0 0.0
2017-Sep-09 19:29S 27°13' E 153°06'0 0.0
2017-Sep-09 18:59S 27°13' E 153°06'0 0.0
2017-Sep-09 18:29S 27°13' E 153°06'0 0.0
2017-Sep-09 17:59S 27°13' E 153°06'0 0.0
2017-Sep-09 17:29S 27°13' E 153°06'0 0.0
2017-Sep-09 16:59S 27°13' E 153°06'0 0.0
2017-Sep-09 16:29S 27°13' E 153°06'0 0.0
2017-Sep-09 15:59S 27°13' E 153°06'0 0.0
2017-Sep-09 15:29S 27°13' E 153°06'0 0.0
2017-Sep-09 14:59S 27°13' E 153°06'0 0.0
2017-Sep-09 14:29S 27°13' E 153°06'0 0.0
2017-Sep-09 13:59S 27°13' E 153°06'0 0.0
2017-Sep-09 13:29S 27°13' E 153°06'0 0.0
2017-Sep-09 12:59S 27°13' E 153°06'0 0.0
2017-Sep-09 12:29S 27°13' E 153°06'0 0.0
2017-Sep-09 11:59S 27°13' E 153°06'0 0.0
2017-Sep-09 11:29S 27°13' E 153°06'0 0.0
2017-Sep-09 10:59S 27°13' E 153°06'0 0.0
2017-Sep-09 10:29S 27°13' E 153°06'0 0.0
2017-Sep-09 09:59S 27°13' E 153°06'0 0.0
2017-Sep-09 09:29S 27°13' E 153°06'0 0.0
2017-Sep-09 08:59S 27°13' E 153°06'0 0.0
2017-Sep-09 08:29S 27°13' E 153°06'0 0.0
2017-Sep-09 07:59S 27°13' E 153°06'0 0.0
2017-Sep-09 07:29S 27°13' E 153°06'0 0.0
2017-Sep-09 06:59S 27°13' E 153°06'0 0.0
2017-Sep-09 06:29S 27°13' E 153°06'0 0.0
2017-Sep-09 05:59S 27°13' E 153°06'1 1.8
2017-Sep-09 05:30S 27°12' E 153°06'3 5.0
2017-Sep-09 05:01S 27°10' E 153°04'3 5.6
2017-Sep-09 04:30S 27°08' E 153°07'2 4.7
2017-Sep-09 04:00S 27°10' E 153°06'2 4.5
2017-Sep-09 03:28S 27°13' E 153°06'0 0.0
2017-Sep-09 02:58S 27°13' E 153°06'  
2017-Sep-03 05:10S 27°13' E 153°06'0 1.2
2017-Sep-03 05:00S 27°12' E 153°06'3 5.1
2017-Sep-03 04:30S 27°11' E 153°08'3 0.1
2017-Sep-02 00:33S 27°11' E 153°11'0 7.5
2017-Sep-02 00:30S 27°11' E 153°11'4 7.2
2017-Sep-02 00:00S 27°11' E 153°07'2 3.6
2017-Sep-01 23:29S 27°13' E 153°06'0 0.0
2017-Sep-01 22:59S 27°13' E 153°06'0 0.0
2017-Sep-01 22:29S 27°13' E 153°06'0 0.0
2017-Sep-01 21:59S 27°13' E 153°06'  
Track history (hours):
 
Tides and Currents Weather Stations Pressure Air Temp Water Temp Dewpoint Dewpoint Depression Visibility Wind Speed Wind Dir Waves Ship Positions

Sublime

Last reported at 2017-Sep-10 07:14 UTC. Time now 2017-Sep-25 07:52 UTC.
Position S 27°13' E 153°06'.
Warning: this ship's position is 15 days out of date.

Length 12 m.

Type: Pleasure craft. MMSI: 503022010.

Date/timePositionNaut miles runAvg speedWind from/ knotsBaromVisibWave heightAir tempDewpointWater temp
2017-Sep-10 07:14S 27°13' E 153°06'0 0.0
2017-Sep-10 06:59S 27°13' E 153°06'0 0.0
2017-Sep-10 06:29S 27°13' E 153°06'0 0.0
2017-Sep-10 05:59S 27°13' E 153°06'0 0.0
2017-Sep-10 05:29S 27°13' E 153°06'0 0.0
2017-Sep-10 04:59S 27°13' E 153°06'0 0.0
2017-Sep-10 04:29S 27°13' E 153°06'0 0.0
2017-Sep-10 03:59S 27°13' E 153°06'0 0.0
2017-Sep-10 03:29S 27°13' E 153°06'0 0.0
2017-Sep-10 02:59S 27°13' E 153°06'0 0.0
2017-Sep-10 02:29S 27°13' E 153°06'0 0.0
2017-Sep-10 01:59S 27°13' E 153°06'0 0.0
2017-Sep-10 01:29S 27°13' E 153°06'0 0.0
2017-Sep-10 00:59S 27°13' E 153°06'0 0.0
2017-Sep-10 00:29S 27°13' E 153°06'0 0.0
2017-Sep-09 23:59S 27°13' E 153°06'0 0.0
2017-Sep-09 23:29S 27°13' E 153°06'0 0.0
2017-Sep-09 22:59S 27°13' E 153°06'0 0.0
2017-Sep-09 22:29S 27°13' E 153°06'0 0.0
2017-Sep-09 21:59S 27°13' E 153°06'0 0.0
2017-Sep-09 21:29S 27°13' E 153°06'0 0.0
2017-Sep-09 20:59S 27°13' E 153°06'0 0.0
2017-Sep-09 20:29S 27°13' E 153°06'0 0.0
2017-Sep-09 19:59S 27°13' E 153°06'0 0.0
2017-Sep-09 19:29S 27°13' E 153°06'0 0.0
2017-Sep-09 18:59S 27°13' E 153°06'0 0.0
2017-Sep-09 18:29S 27°13' E 153°06'0 0.0
2017-Sep-09 17:59S 27°13' E 153°06'0 0.0
2017-Sep-09 17:29S 27°13' E 153°06'0 0.0
2017-Sep-09 16:59S 27°13' E 153°06'0 0.0
2017-Sep-09 16:29S 27°13' E 153°06'0 0.0
2017-Sep-09 15:59S 27°13' E 153°06'0 0.0
2017-Sep-09 15:29S 27°13' E 153°06'0 0.0
2017-Sep-09 14:59S 27°13' E 153°06'0 0.0
2017-Sep-09 14:29S 27°13' E 153°06'0 0.0
2017-Sep-09 13:59S 27°13' E 153°06'0 0.0
2017-Sep-09 13:29S 27°13' E 153°06'0 0.0
2017-Sep-09 12:59S 27°13' E 153°06'0 0.0
2017-Sep-09 12:29S 27°13' E 153°06'0 0.0
2017-Sep-09 11:59S 27°13' E 153°06'0 0.0
2017-Sep-09 11:29S 27°13' E 153°06'0 0.0
2017-Sep-09 10:59S 27°13' E 153°06'0 0.0
2017-Sep-09 10:29S 27°13' E 153°06'0 0.0
2017-Sep-09 09:59S 27°13' E 153°06'0 0.0
2017-Sep-09 09:29S 27°13' E 153°06'0 0.0
2017-Sep-09 08:59S 27°13' E 153°06'0 0.0
2017-Sep-09 08:29S 27°13' E 153°06'0 0.0
2017-Sep-09 07:59S 27°13' E 153°06'0 0.0
2017-Sep-09 07:29S 27°13' E 153°06'0 0.0
2017-Sep-09 06:59S 27°13' E 153°06'0 0.0
2017-Sep-09 06:29S 27°13' E 153°06'0 0.0
2017-Sep-09 05:59S 27°13' E 153°06'1 1.8
2017-Sep-09 05:30S 27°12' E 153°06'3 5.0
2017-Sep-09 05:01S 27°10' E 153°04'3 5.6
2017-Sep-09 04:30S 27°08' E 153°07'2 4.7
2017-Sep-09 04:00S 27°10' E 153°06'2 4.5
2017-Sep-09 03:28S 27°13' E 153°06'0 0.0
2017-Sep-09 02:58S 27°13' E 153°06'  
2017-Sep-03 05:10S 27°13' E 153°06'0 1.2
2017-Sep-03 05:00S 27°12' E 153°06'3 5.1
2017-Sep-03 04:30S 27°11' E 153°08'3 0.1
2017-Sep-02 00:33S 27°11' E 153°11'0 7.5
2017-Sep-02 00:30S 27°11' E 153°11'4 7.2
2017-Sep-02 00:00S 27°11' E 153°07'2 3.6
2017-Sep-01 23:29S 27°13' E 153°06'0 0.0
2017-Sep-01 22:59S 27°13' E 153°06'0 0.0
2017-Sep-01 22:29S 27°13' E 153°06'0 0.0
2017-Sep-01 21:59S 27°13' E 153°06'  

Dump ship's entire track history